sensor_id;sensor_type;location;lat;lon;timestamp;P1;durP1;ratioP1;P2;durP2;ratioP2
17345;SDS011;8790;53.590;10.002;2024-02-26T00:02:08;13.17;;;8.00;;
17345;SDS011;8790;53.590;10.002;2024-02-26T00:04:39;9.87;;;7.37;;
17345;SDS011;8790;53.590;10.002;2024-02-26T00:07:11;11.70;;;8.50;;
17345;SDS011;8790;53.590;10.002;2024-02-26T00:09:44;11.40;;;8.13;;
17345;SDS011;8790;53.590;10.002;2024-02-26T00:12:15;13.50;;;8.33;;
17345;SDS011;8790;53.590;10.002;2024-02-26T00:14:46;14.47;;;8.43;;
17345;SDS011;8790;53.590;10.002;2024-02-26T00:17:19;13.00;;;8.67;;
17345;SDS011;8790;53.590;10.002;2024-02-26T00:19:51;12.40;;;8.53;;
17345;SDS011;8790;53.590;10.002;2024-02-26T00:22:23;10.67;;;7.70;;
17345;SDS011;8790;53.590;10.002;2024-02-26T00:24:55;11.30;;;8.03;;
17345;SDS011;8790;53.590;10.002;2024-02-26T00:27:27;10.67;;;8.40;;
17345;SDS011;8790;53.590;10.002;2024-02-26T00:29:58;11.97;;;8.30;;
17345;SDS011;8790;53.590;10.002;2024-02-26T00:32:30;11.17;;;7.93;;
17345;SDS011;8790;53.590;10.002;2024-02-26T00:35:01;10.27;;;7.50;;
17345;SDS011;8790;53.590;10.002;2024-02-26T00:37:32;10.77;;;7.90;;
17345;SDS011;8790;53.590;10.002;2024-02-26T00:40:06;10.63;;;8.13;;
17345;SDS011;8790;53.590;10.002;2024-02-26T00:42:39;10.60;;;8.03;;
17345;SDS011;8790;53.590;10.002;2024-02-26T00:45:15;10.93;;;8.27;;
17345;SDS011;8790;53.590;10.002;2024-02-26T00:47:47;12.77;;;8.23;;
17345;SDS011;8790;53.590;10.002;2024-02-26T00:50:18;10.40;;;7.83;;
17345;SDS011;8790;53.590;10.002;2024-02-26T00:52:50;10.23;;;8.00;;
17345;SDS011;8790;53.590;10.002;2024-02-26T00:55:23;11.40;;;8.00;;
17345;SDS011;8790;53.590;10.002;2024-02-26T00:57:54;9.50;;;7.67;;
17345;SDS011;8790;53.590;10.002;2024-02-26T01:00:26;10.17;;;7.53;;
17345;SDS011;8790;53.590;10.002;2024-02-26T01:02:57;10.77;;;7.87;;
17345;SDS011;8790;53.590;10.002;2024-02-26T01:05:30;10.43;;;7.33;;
17345;SDS011;8790;53.590;10.002;2024-02-26T01:08:01;10.40;;;7.90;;
17345;SDS011;8790;53.590;10.002;2024-02-26T01:10:34;9.70;;;7.67;;
17345;SDS011;8790;53.590;10.002;2024-02-26T01:13:06;11.30;;;8.27;;
17345;SDS011;8790;53.590;10.002;2024-02-26T01:15:38;10.63;;;8.07;;
17345;SDS011;8790;53.590;10.002;2024-02-26T01:18:09;10.80;;;7.47;;
17345;SDS011;8790;53.590;10.002;2024-02-26T01:20:40;10.33;;;8.13;;
17345;SDS011;8790;53.590;10.002;2024-02-26T01:23:12;11.17;;;7.97;;
17345;SDS011;8790;53.590;10.002;2024-02-26T01:25:45;11.33;;;8.03;;
17345;SDS011;8790;53.590;10.002;2024-02-26T01:28:16;9.57;;;8.03;;
17345;SDS011;8790;53.590;10.002;2024-02-26T01:30:47;11.53;;;8.23;;
17345;SDS011;8790;53.590;10.002;2024-02-26T01:33:19;13.60;;;8.97;;
17345;SDS011;8790;53.590;10.002;2024-02-26T01:35:50;10.63;;;8.50;;
17345;SDS011;8790;53.590;10.002;2024-02-26T01:38:23;10.83;;;8.20;;
17345;SDS011;8790;53.590;10.002;2024-02-26T01:40:56;10.30;;;8.13;;
17345;SDS011;8790;53.590;10.002;2024-02-26T01:43:27;12.03;;;8.83;;
17345;SDS011;8790;53.590;10.002;2024-02-26T01:45:58;10.40;;;8.20;;
17345;SDS011;8790;53.590;10.002;2024-02-26T01:48:30;10.83;;;8.20;;
17345;SDS011;8790;53.590;10.002;2024-02-26T01:51:02;11.23;;;8.33;;
17345;SDS011;8790;53.590;10.002;2024-02-26T01:53:33;13.23;;;9.00;;
17345;SDS011;8790;53.590;10.002;2024-02-26T01:56:06;12.50;;;9.17;;
17345;SDS011;8790;53.590;10.002;2024-02-26T01:58:38;13.33;;;9.33;;
17345;SDS011;8790;53.590;10.002;2024-02-26T02:01:09;12.67;;;8.93;;
17345;SDS011;8790;53.590;10.002;2024-02-26T02:03:41;12.43;;;8.83;;
17345;SDS011;8790;53.590;10.002;2024-02-26T02:06:13;12.90;;;8.97;;
17345;SDS011;8790;53.590;10.002;2024-02-26T02:08:45;13.53;;;8.80;;
17345;SDS011;8790;53.590;10.002;2024-02-26T02:11:19;12.50;;;9.20;;
17345;SDS011;8790;53.590;10.002;2024-02-26T02:13:51;12.77;;;8.97;;
17345;SDS011;8790;53.590;10.002;2024-02-26T02:16:22;11.20;;;8.80;;
17345;SDS011;8790;53.590;10.002;2024-02-26T02:18:54;10.87;;;8.50;;
17345;SDS011;8790;53.590;10.002;2024-02-26T02:21:26;11.93;;;8.53;;
17345;SDS011;8790;53.590;10.002;2024-02-26T02:23:58;12.60;;;8.90;;
17345;SDS011;8790;53.590;10.002;2024-02-26T02:26:29;13.47;;;9.20;;
17345;SDS011;8790;53.590;10.002;2024-02-26T02:29:01;14.17;;;10.07;;
17345;SDS011;8790;53.590;10.002;2024-02-26T02:31:33;13.13;;;9.30;;
17345;SDS011;8790;53.590;10.002;2024-02-26T02:34:04;14.43;;;10.10;;
17345;SDS011;8790;53.590;10.002;2024-02-26T02:36:49;14.77;;;10.87;;
17345;SDS011;8790;53.590;10.002;2024-02-26T02:39:21;14.07;;;10.37;;
17345;SDS011;8790;53.590;10.002;2024-02-26T02:41:52;16.00;;;10.77;;
17345;SDS011;8790;53.590;10.002;2024-02-26T02:44:23;15.40;;;11.07;;
17345;SDS011;8790;53.590;10.002;2024-02-26T02:46:55;17.07;;;11.87;;
17345;SDS011;8790;53.590;10.002;2024-02-26T02:49:26;15.73;;;10.70;;
17345;SDS011;8790;53.590;10.002;2024-02-26T02:51:59;15.67;;;11.00;;
17345;SDS011;8790;53.590;10.002;2024-02-26T02:54:31;15.00;;;10.37;;
17345;SDS011;8790;53.590;10.002;2024-02-26T02:57:02;14.40;;;9.70;;
17345;SDS011;8790;53.590;10.002;2024-02-26T02:59:34;15.97;;;10.67;;
17345;SDS011;8790;53.590;10.002;2024-02-26T03:02:06;15.00;;;10.53;;
17345;SDS011;8790;53.590;10.002;2024-02-26T03:04:38;14.67;;;10.50;;
17345;SDS011;8790;53.590;10.002;2024-02-26T03:07:10;14.53;;;10.30;;
17345;SDS011;8790;53.590;10.002;2024-02-26T03:09:42;14.17;;;9.40;;
17345;SDS011;8790;53.590;10.002;2024-02-26T03:12:14;14.43;;;9.90;;
17345;SDS011;8790;53.590;10.002;2024-02-26T03:14:45;15.73;;;10.83;;
17345;SDS011;8790;53.590;10.002;2024-02-26T03:17:17;15.17;;;10.47;;
17345;SDS011;8790;53.590;10.002;2024-02-26T03:19:48;17.07;;;11.23;;
17345;SDS011;8790;53.590;10.002;2024-02-26T03:22:25;15.30;;;10.73;;
17345;SDS011;8790;53.590;10.002;2024-02-26T03:28:49;15.87;;;11.07;;
17345;SDS011;8790;53.590;10.002;2024-02-26T03:31:20;16.17;;;11.27;;
17345;SDS011;8790;53.590;10.002;2024-02-26T03:33:51;16.57;;;11.70;;
17345;SDS011;8790;53.590;10.002;2024-02-26T03:36:23;16.73;;;11.20;;
17345;SDS011;8790;53.590;10.002;2024-02-26T03:38:55;17.10;;;11.37;;
17345;SDS011;8790;53.590;10.002;2024-02-26T03:41:27;16.07;;;10.83;;
17345;SDS011;8790;53.590;10.002;2024-02-26T03:43:58;14.77;;;10.97;;
17345;SDS011;8790;53.590;10.002;2024-02-26T03:46:30;14.57;;;10.90;;
17345;SDS011;8790;53.590;10.002;2024-02-26T03:49:01;14.27;;;10.20;;
17345;SDS011;8790;53.590;10.002;2024-02-26T03:51:33;15.77;;;10.20;;
17345;SDS011;8790;53.590;10.002;2024-02-26T03:54:05;14.27;;;10.40;;
17345;SDS011;8790;53.590;10.002;2024-02-26T03:56:37;15.57;;;10.63;;
17345;SDS011;8790;53.590;10.002;2024-02-26T03:59:08;15.70;;;10.90;;
17345;SDS011;8790;53.590;10.002;2024-02-26T04:01:44;14.63;;;11.03;;
17345;SDS011;8790;53.590;10.002;2024-02-26T04:04:16;14.20;;;10.13;;
17345;SDS011;8790;53.590;10.002;2024-02-26T04:06:47;13.93;;;9.87;;
17345;SDS011;8790;53.590;10.002;2024-02-26T04:09:20;16.40;;;10.57;;
17345;SDS011;8790;53.590;10.002;2024-02-26T04:11:51;16.37;;;11.00;;
17345;SDS011;8790;53.590;10.002;2024-02-26T04:14:23;14.20;;;10.23;;
17345;SDS011;8790;53.590;10.002;2024-02-26T04:16:54;15.53;;;10.87;;
17345;SDS011;8790;53.590;10.002;2024-02-26T04:19:25;14.70;;;10.40;;
17345;SDS011;8790;53.590;10.002;2024-02-26T04:21:57;14.30;;;10.67;;
17345;SDS011;8790;53.590;10.002;2024-02-26T04:24:30;15.40;;;10.90;;
17345;SDS011;8790;53.590;10.002;2024-02-26T04:27:01;15.37;;;10.97;;
17345;SDS011;8790;53.590;10.002;2024-02-26T04:29:32;17.00;;;11.90;;
17345;SDS011;8790;53.590;10.002;2024-02-26T04:32:04;17.23;;;11.27;;
17345;SDS011;8790;53.590;10.002;2024-02-26T04:34:35;15.80;;;10.63;;
17345;SDS011;8790;53.590;10.002;2024-02-26T04:37:07;15.17;;;11.00;;
17345;SDS011;8790;53.590;10.002;2024-02-26T04:39:40;17.60;;;10.67;;
17345;SDS011;8790;53.590;10.002;2024-02-26T04:42:11;16.10;;;10.87;;
17345;SDS011;8790;53.590;10.002;2024-02-26T04:44:43;16.10;;;10.87;;
17345;SDS011;8790;53.590;10.002;2024-02-26T04:47:14;16.47;;;11.40;;
17345;SDS011;8790;53.590;10.002;2024-02-26T04:49:46;16.37;;;11.67;;
17345;SDS011;8790;53.590;10.002;2024-02-26T04:52:18;17.67;;;11.17;;
17345;SDS011;8790;53.590;10.002;2024-02-26T04:54:51;15.77;;;10.63;;
17345;SDS011;8790;53.590;10.002;2024-02-26T04:57:22;14.77;;;10.40;;
17345;SDS011;8790;53.590;10.002;2024-02-26T04:59:54;15.37;;;10.83;;
17345;SDS011;8790;53.590;10.002;2024-02-26T05:02:25;14.77;;;10.50;;
17345;SDS011;8790;53.590;10.002;2024-02-26T05:04:57;13.93;;;10.33;;
17345;SDS011;8790;53.590;10.002;2024-02-26T05:07:28;14.90;;;10.33;;
17345;SDS011;8790;53.590;10.002;2024-02-26T05:10:01;15.37;;;10.53;;
17345;SDS011;8790;53.590;10.002;2024-02-26T05:12:33;18.57;;;11.50;;
17345;SDS011;8790;53.590;10.002;2024-02-26T05:15:06;15.60;;;11.30;;
17345;SDS011;8790;53.590;10.002;2024-02-26T05:17:38;15.30;;;11.00;;
17345;SDS011;8790;53.590;10.002;2024-02-26T05:20:09;16.70;;;11.20;;
17345;SDS011;8790;53.590;10.002;2024-02-26T05:22:41;16.93;;;11.40;;
17345;SDS011;8790;53.590;10.002;2024-02-26T05:25:15;15.87;;;11.07;;
17345;SDS011;8790;53.590;10.002;2024-02-26T05:27:47;16.23;;;11.03;;
17345;SDS011;8790;53.590;10.002;2024-02-26T05:30:18;17.67;;;11.83;;
17345;SDS011;8790;53.590;10.002;2024-02-26T05:32:50;15.90;;;11.47;;
17345;SDS011;8790;53.590;10.002;2024-02-26T05:35:21;17.20;;;10.93;;
17345;SDS011;8790;53.590;10.002;2024-02-26T05:37:52;17.13;;;11.67;;
17345;SDS011;8790;53.590;10.002;2024-02-26T05:40:26;17.63;;;11.63;;
17345;SDS011;8790;53.590;10.002;2024-02-26T05:42:57;18.23;;;11.90;;
17345;SDS011;8790;53.590;10.002;2024-02-26T05:45:28;16.73;;;11.63;;
17345;SDS011;8790;53.590;10.002;2024-02-26T05:48:00;16.37;;;11.30;;
17345;SDS011;8790;53.590;10.002;2024-02-26T05:50:31;17.63;;;11.53;;
17345;SDS011;8790;53.590;10.002;2024-02-26T05:53:03;17.20;;;11.40;;
17345;SDS011;8790;53.590;10.002;2024-02-26T05:55:36;16.00;;;11.03;;
17345;SDS011;8790;53.590;10.002;2024-02-26T05:58:07;16.90;;;11.07;;
17345;SDS011;8790;53.590;10.002;2024-02-26T06:00:39;15.47;;;11.03;;
17345;SDS011;8790;53.590;10.002;2024-02-26T06:03:10;17.13;;;11.63;;
17345;SDS011;8790;53.590;10.002;2024-02-26T06:05:41;18.07;;;11.60;;
17345;SDS011;8790;53.590;10.002;2024-02-26T06:08:13;16.97;;;12.03;;
17345;SDS011;8790;53.590;10.002;2024-02-26T06:10:46;15.80;;;10.70;;
17345;SDS011;8790;53.590;10.002;2024-02-26T06:13:17;17.67;;;11.50;;
17345;SDS011;8790;53.590;10.002;2024-02-26T06:15:49;16.77;;;11.40;;
17345;SDS011;8790;53.590;10.002;2024-02-26T06:18:20;17.07;;;11.87;;
17345;SDS011;8790;53.590;10.002;2024-02-26T06:20:52;18.13;;;11.50;;
17345;SDS011;8790;53.590;10.002;2024-02-26T06:23:23;19.20;;;12.03;;
17345;SDS011;8790;53.590;10.002;2024-02-26T06:25:57;17.03;;;10.97;;
17345;SDS011;8790;53.590;10.002;2024-02-26T06:28:28;17.87;;;11.73;;
17345;SDS011;8790;53.590;10.002;2024-02-26T06:31:02;15.60;;;10.83;;
17345;SDS011;8790;53.590;10.002;2024-02-26T06:33:34;14.73;;;10.53;;
17345;SDS011;8790;53.590;10.002;2024-02-26T06:36:05;16.03;;;11.07;;
17345;SDS011;8790;53.590;10.002;2024-02-26T06:38:37;16.73;;;11.63;;
17345;SDS011;8790;53.590;10.002;2024-02-26T06:41:10;16.97;;;11.30;;
17345;SDS011;8790;53.590;10.002;2024-02-26T06:43:42;16.13;;;10.60;;
17345;SDS011;8790;53.590;10.002;2024-02-26T06:46:13;15.90;;;10.63;;
17345;SDS011;8790;53.590;10.002;2024-02-26T06:48:44;18.00;;;11.37;;
17345;SDS011;8790;53.590;10.002;2024-02-26T06:51:16;16.17;;;10.93;;
17345;SDS011;8790;53.590;10.002;2024-02-26T06:53:48;15.43;;;10.43;;
17345;SDS011;8790;53.590;10.002;2024-02-26T06:56:21;14.87;;;10.10;;
17345;SDS011;8790;53.590;10.002;2024-02-26T06:58:53;14.73;;;10.10;;
17345;SDS011;8790;53.590;10.002;2024-02-26T07:01:24;16.60;;;10.90;;
17345;SDS011;8790;53.590;10.002;2024-02-26T07:03:55;17.02;;;10.65;;
17345;SDS011;8790;53.590;10.002;2024-02-26T07:06:27;16.63;;;11.23;;
17345;SDS011;8790;53.590;10.002;2024-02-26T07:08:58;15.97;;;10.60;;
17345;SDS011;8790;53.590;10.002;2024-02-26T07:11:31;18.73;;;11.43;;
17345;SDS011;8790;53.590;10.002;2024-02-26T07:14:03;16.70;;;11.13;;
17345;SDS011;8790;53.590;10.002;2024-02-26T07:16:34;17.07;;;11.07;;
17345;SDS011;8790;53.590;10.002;2024-02-26T07:19:05;16.87;;;11.03;;
17345;SDS011;8790;53.590;10.002;2024-02-26T07:21:37;17.20;;;11.33;;
17345;SDS011;8790;53.590;10.002;2024-02-26T07:24:09;15.23;;;10.63;;
17345;SDS011;8790;53.590;10.002;2024-02-26T07:26:42;16.77;;;10.93;;
17345;SDS011;8790;53.590;10.002;2024-02-26T07:29:13;17.17;;;11.23;;
17345;SDS011;8790;53.590;10.002;2024-02-26T07:31:45;15.83;;;11.13;;
17345;SDS011;8790;53.590;10.002;2024-02-26T07:34:16;17.00;;;10.70;;
17345;SDS011;8790;53.590;10.002;2024-02-26T07:36:48;15.60;;;10.57;;
17345;SDS011;8790;53.590;10.002;2024-02-26T07:39:19;17.03;;;11.10;;
17345;SDS011;8790;53.590;10.002;2024-02-26T07:41:52;14.47;;;10.30;;
17345;SDS011;8790;53.590;10.002;2024-02-26T07:44:23;16.30;;;10.33;;
17345;SDS011;8790;53.590;10.002;2024-02-26T07:46:55;15.47;;;10.10;;
17345;SDS011;8790;53.590;10.002;2024-02-26T07:49:26;16.97;;;10.33;;
17345;SDS011;8790;53.590;10.002;2024-02-26T07:51:57;15.00;;;10.50;;
17345;SDS011;8790;53.590;10.002;2024-02-26T07:54:29;16.27;;;10.73;;
17345;SDS011;8790;53.590;10.002;2024-02-26T07:57:02;15.90;;;11.10;;
17345;SDS011;8790;53.590;10.002;2024-02-26T07:59:35;16.63;;;11.23;;
17345;SDS011;8790;53.590;10.002;2024-02-26T08:02:06;16.53;;;10.73;;
17345;SDS011;8790;53.590;10.002;2024-02-26T08:04:38;17.30;;;11.43;;
17345;SDS011;8790;53.590;10.002;2024-02-26T08:07:09;17.53;;;11.67;;
17345;SDS011;8790;53.590;10.002;2024-02-26T08:09:41;16.40;;;10.47;;
17345;SDS011;8790;53.590;10.002;2024-02-26T08:12:14;19.37;;;11.37;;
17345;SDS011;8790;53.590;10.002;2024-02-26T08:14:45;21.73;;;13.13;;
17345;SDS011;8790;53.590;10.002;2024-02-26T08:17:16;19.40;;;11.93;;
17345;SDS011;8790;53.590;10.002;2024-02-26T08:19:48;16.97;;;11.80;;
17345;SDS011;8790;53.590;10.002;2024-02-26T08:22:19;18.47;;;12.23;;
17345;SDS011;8790;53.590;10.002;2024-02-26T08:24:51;19.20;;;12.07;;
17345;SDS011;8790;53.590;10.002;2024-02-26T08:27:24;17.43;;;11.40;;
17345;SDS011;8790;53.590;10.002;2024-02-26T08:29:55;17.70;;;11.80;;
17345;SDS011;8790;53.590;10.002;2024-02-26T08:32:26;18.70;;;12.20;;
17345;SDS011;8790;53.590;10.002;2024-02-26T08:34:58;17.90;;;11.20;;
17345;SDS011;8790;53.590;10.002;2024-02-26T08:37:30;17.40;;;11.57;;
17345;SDS011;8790;53.590;10.002;2024-02-26T08:40:01;16.90;;;11.07;;
17345;SDS011;8790;53.590;10.002;2024-02-26T08:42:35;18.63;;;11.20;;
17345;SDS011;8790;53.590;10.002;2024-02-26T08:45:07;17.97;;;11.47;;
17345;SDS011;8790;53.590;10.002;2024-02-26T08:47:39;17.63;;;10.93;;
17345;SDS011;8790;53.590;10.002;2024-02-26T08:50:10;18.07;;;10.93;;
17345;SDS011;8790;53.590;10.002;2024-02-26T08:52:42;15.27;;;10.33;;
17345;SDS011;8790;53.590;10.002;2024-02-26T08:55:14;17.20;;;10.70;;
17345;SDS011;8790;53.590;10.002;2024-02-26T08:57:46;16.43;;;10.40;;
17345;SDS011;8790;53.590;10.002;2024-02-26T09:00:18;16.27;;;10.63;;
17345;SDS011;8790;53.590;10.002;2024-02-26T09:02:50;17.67;;;11.07;;
17345;SDS011;8790;53.590;10.002;2024-02-26T09:05:22;17.77;;;11.23;;
17345;SDS011;8790;53.590;10.002;2024-02-26T09:07:53;16.30;;;11.23;;
17345;SDS011;8790;53.590;10.002;2024-02-26T09:10:25;17.20;;;10.90;;
17345;SDS011;8790;53.590;10.002;2024-02-26T09:12:58;15.40;;;10.20;;
17345;SDS011;8790;53.590;10.002;2024-02-26T09:15:29;15.60;;;10.23;;
17345;SDS011;8790;53.590;10.002;2024-02-26T09:18:01;15.77;;;9.83;;
17345;SDS011;8790;53.590;10.002;2024-02-26T09:20:33;15.07;;;10.33;;
17345;SDS011;8790;53.590;10.002;2024-02-26T09:23:04;14.80;;;9.60;;
17345;SDS011;8790;53.590;10.002;2024-02-26T09:25:35;14.53;;;9.67;;
17345;SDS011;8790;53.590;10.002;2024-02-26T09:28:08;14.13;;;9.57;;
17345;SDS011;8790;53.590;10.002;2024-02-26T09:30:40;16.33;;;10.30;;
17345;SDS011;8790;53.590;10.002;2024-02-26T09:33:11;15.40;;;9.93;;
17345;SDS011;8790;53.590;10.002;2024-02-26T09:35:42;15.63;;;9.97;;
17345;SDS011;8790;53.590;10.002;2024-02-26T09:38:14;16.67;;;10.10;;
17345;SDS011;8790;53.590;10.002;2024-02-26T09:40:45;14.93;;;10.00;;
17345;SDS011;8790;53.590;10.002;2024-02-26T09:43:20;16.20;;;10.13;;
17345;SDS011;8790;53.590;10.002;2024-02-26T09:45:53;15.13;;;9.90;;
17345;SDS011;8790;53.590;10.002;2024-02-26T09:48:24;15.27;;;9.83;;
17345;SDS011;8790;53.590;10.002;2024-02-26T09:50:56;16.40;;;10.70;;
17345;SDS011;8790;53.590;10.002;2024-02-26T09:53:27;16.37;;;10.47;;
17345;SDS011;8790;53.590;10.002;2024-02-26T09:56:01;17.53;;;10.73;;
17345;SDS011;8790;53.590;10.002;2024-02-26T09:58:34;17.60;;;10.93;;
17345;SDS011;8790;53.590;10.002;2024-02-26T10:01:07;15.30;;;9.87;;
17345;SDS011;8790;53.590;10.002;2024-02-26T10:03:42;25.90;;;13.60;;
17345;SDS011;8790;53.590;10.002;2024-02-26T10:06:15;15.57;;;10.33;;
17345;SDS011;8790;53.590;10.002;2024-02-26T10:08:46;18.07;;;10.77;;
17345;SDS011;8790;53.590;10.002;2024-02-26T10:11:18;18.33;;;10.87;;
17345;SDS011;8790;53.590;10.002;2024-02-26T10:13:51;17.70;;;10.60;;
17345;SDS011;8790;53.590;10.002;2024-02-26T10:16:22;15.30;;;9.77;;
17345;SDS011;8790;53.590;10.002;2024-02-26T10:18:54;16.53;;;10.73;;
17345;SDS011;8790;53.590;10.002;2024-02-26T10:21:25;18.87;;;11.23;;
17345;SDS011;8790;53.590;10.002;2024-02-26T10:23:57;16.33;;;10.43;;
17345;SDS011;8790;53.590;10.002;2024-02-26T10:26:28;17.23;;;10.83;;
17345;SDS011;8790;53.590;10.002;2024-02-26T10:29:01;16.97;;;10.10;;
17345;SDS011;8790;53.590;10.002;2024-02-26T10:31:33;17.07;;;10.87;;
17345;SDS011;8790;53.590;10.002;2024-02-26T10:34:04;16.57;;;10.37;;
17345;SDS011;8790;53.590;10.002;2024-02-26T10:36:36;17.00;;;9.97;;
17345;SDS011;8790;53.590;10.002;2024-02-26T10:39:11;18.27;;;10.53;;
17345;SDS011;8790;53.590;10.002;2024-02-26T10:41:43;19.40;;;11.37;;
17345;SDS011;8790;53.590;10.002;2024-02-26T10:44:17;18.87;;;11.13;;
17345;SDS011;8790;53.590;10.002;2024-02-26T10:46:49;19.53;;;11.20;;
17345;SDS011;8790;53.590;10.002;2024-02-26T10:49:21;16.23;;;9.90;;
17345;SDS011;8790;53.590;10.002;2024-02-26T10:51:55;17.47;;;10.67;;
17345;SDS011;8790;53.590;10.002;2024-02-26T10:54:27;18.50;;;10.53;;
17345;SDS011;8790;53.590;10.002;2024-02-26T10:57:00;21.23;;;11.37;;
17345;SDS011;8790;53.590;10.002;2024-02-26T10:59:33;19.87;;;11.37;;
17345;SDS011;8790;53.590;10.002;2024-02-26T11:02:06;18.40;;;10.93;;
17345;SDS011;8790;53.590;10.002;2024-02-26T11:04:39;19.67;;;11.37;;
17345;SDS011;8790;53.590;10.002;2024-02-26T11:07:10;17.10;;;10.70;;
17345;SDS011;8790;53.590;10.002;2024-02-26T11:09:42;19.63;;;11.83;;
17345;SDS011;8790;53.590;10.002;2024-02-26T11:12:16;19.53;;;12.13;;
17345;SDS011;8790;53.590;10.002;2024-02-26T11:14:49;18.47;;;11.17;;
17345;SDS011;8790;53.590;10.002;2024-02-26T11:17:25;17.77;;;11.27;;
17345;SDS011;8790;53.590;10.002;2024-02-26T11:19:58;16.23;;;10.00;;
17345;SDS011;8790;53.590;10.002;2024-02-26T11:22:32;19.57;;;11.60;;
17345;SDS011;8790;53.590;10.002;2024-02-26T11:25:04;15.83;;;10.30;;
17345;SDS011;8790;53.590;10.002;2024-02-26T11:27:37;17.73;;;10.07;;
17345;SDS011;8790;53.590;10.002;2024-02-26T11:30:13;15.40;;;9.63;;
17345;SDS011;8790;53.590;10.002;2024-02-26T11:32:45;17.57;;;10.17;;
17345;SDS011;8790;53.590;10.002;2024-02-26T11:35:17;13.40;;;8.73;;
17345;SDS011;8790;53.590;10.002;2024-02-26T11:37:53;13.20;;;9.23;;
17345;SDS011;8790;53.590;10.002;2024-02-26T11:40:26;13.23;;;9.17;;
17345;SDS011;8790;53.590;10.002;2024-02-26T11:42:57;15.13;;;9.50;;
17345;SDS011;8790;53.590;10.002;2024-02-26T11:45:48;13.27;;;9.00;;
17345;SDS011;8790;53.590;10.002;2024-02-26T11:48:22;15.10;;;9.90;;
17345;SDS011;8790;53.590;10.002;2024-02-26T11:50:56;15.60;;;9.53;;
17345;SDS011;8790;53.590;10.002;2024-02-26T11:53:29;15.60;;;8.67;;
17345;SDS011;8790;53.590;10.002;2024-02-26T11:56:19;14.30;;;9.10;;
17345;SDS011;8790;53.590;10.002;2024-02-26T11:58:59;14.53;;;9.50;;
17345;SDS011;8790;53.590;10.002;2024-02-26T12:01:45;26.10;;;14.00;;
17345;SDS011;8790;53.590;10.002;2024-02-26T12:04:19;15.67;;;9.97;;
17345;SDS011;8790;53.590;10.002;2024-02-26T12:06:54;13.63;;;8.97;;
17345;SDS011;8790;53.590;10.002;2024-02-26T12:09:36;13.70;;;8.93;;
17345;SDS011;8790;53.590;10.002;2024-02-26T12:12:08;13.90;;;9.13;;
17345;SDS011;8790;53.590;10.002;2024-02-26T12:14:50;15.33;;;10.60;;
17345;SDS011;8790;53.590;10.002;2024-02-26T12:17:24;13.23;;;9.43;;
17345;SDS011;8790;53.590;10.002;2024-02-26T12:19:56;14.03;;;10.00;;
17345;SDS011;8790;53.590;10.002;2024-02-26T12:22:39;13.00;;;9.13;;
17345;SDS011;8790;53.590;10.002;2024-02-26T12:25:12;15.30;;;9.70;;
17345;SDS011;8790;53.590;10.002;2024-02-26T12:27:43;14.77;;;9.50;;
17345;SDS011;8790;53.590;10.002;2024-02-26T12:30:15;14.20;;;9.23;;
17345;SDS011;8790;53.590;10.002;2024-02-26T12:32:48;13.60;;;9.20;;
17345;SDS011;8790;53.590;10.002;2024-02-26T12:35:20;14.47;;;10.40;;
17345;SDS011;8790;53.590;10.002;2024-02-26T12:37:51;13.10;;;9.27;;
17345;SDS011;8790;53.590;10.002;2024-02-26T12:40:23;15.20;;;10.20;;
17345;SDS011;8790;53.590;10.002;2024-02-26T12:42:56;14.63;;;9.77;;
17345;SDS011;8790;53.590;10.002;2024-02-26T12:45:28;13.27;;;9.83;;
17345;SDS011;8790;53.590;10.002;2024-02-26T12:48:00;14.87;;;10.03;;
17345;SDS011;8790;53.590;10.002;2024-02-26T12:50:32;11.87;;;8.67;;
17345;SDS011;8790;53.590;10.002;2024-02-26T12:53:04;11.07;;;8.43;;
17345;SDS011;8790;53.590;10.002;2024-02-26T12:55:36;14.60;;;9.07;;
17345;SDS011;8790;53.590;10.002;2024-02-26T12:58:10;13.17;;;9.17;;
17345;SDS011;8790;53.590;10.002;2024-02-26T13:00:41;13.40;;;9.20;;
17345;SDS011;8790;53.590;10.002;2024-02-26T13:03:14;12.10;;;8.80;;
17345;SDS011;8790;53.590;10.002;2024-02-26T13:05:46;14.30;;;9.37;;
17345;SDS011;8790;53.590;10.002;2024-02-26T13:08:17;14.27;;;9.20;;
17345;SDS011;8790;53.590;10.002;2024-02-26T13:10:49;12.67;;;8.70;;
17345;SDS011;8790;53.590;10.002;2024-02-26T13:13:22;13.60;;;8.53;;
17345;SDS011;8790;53.590;10.002;2024-02-26T13:16:00;13.67;;;8.97;;
17345;SDS011;8790;53.590;10.002;2024-02-26T13:18:34;13.97;;;8.50;;
17345;SDS011;8790;53.590;10.002;2024-02-26T13:21:07;13.47;;;9.03;;
17345;SDS011;8790;53.590;10.002;2024-02-26T13:23:40;14.27;;;9.13;;
17345;SDS011;8790;53.590;10.002;2024-02-26T13:26:12;12.97;;;8.27;;
17345;SDS011;8790;53.590;10.002;2024-02-26T13:28:43;12.93;;;8.73;;
17345;SDS011;8790;53.590;10.002;2024-02-26T13:31:15;12.57;;;8.63;;
17345;SDS011;8790;53.590;10.002;2024-02-26T13:33:47;13.80;;;8.97;;
17345;SDS011;8790;53.590;10.002;2024-02-26T13:36:19;13.57;;;8.93;;
17345;SDS011;8790;53.590;10.002;2024-02-26T13:38:51;16.20;;;9.60;;
17345;SDS011;8790;53.590;10.002;2024-02-26T13:41:23;12.80;;;8.53;;
17345;SDS011;8790;53.590;10.002;2024-02-26T13:43:54;12.67;;;8.70;;
17345;SDS011;8790;53.590;10.002;2024-02-26T13:46:27;14.37;;;8.97;;
17345;SDS011;8790;53.590;10.002;2024-02-26T13:49:00;13.63;;;9.13;;
17345;SDS011;8790;53.590;10.002;2024-02-26T13:51:32;13.73;;;9.57;;
17345;SDS011;8790;53.590;10.002;2024-02-26T13:54:05;13.13;;;8.77;;
17345;SDS011;8790;53.590;10.002;2024-02-26T13:56:37;13.77;;;8.93;;
17345;SDS011;8790;53.590;10.002;2024-02-26T13:59:08;16.23;;;10.10;;
17345;SDS011;8790;53.590;10.002;2024-02-26T14:01:39;14.17;;;9.20;;
17345;SDS011;8790;53.590;10.002;2024-02-26T14:04:12;14.33;;;9.07;;
17345;SDS011;8790;53.590;10.002;2024-02-26T14:06:44;14.40;;;9.33;;
17345;SDS011;8790;53.590;10.002;2024-02-26T14:09:15;15.13;;;9.87;;
17345;SDS011;8790;53.590;10.002;2024-02-26T14:11:48;14.27;;;9.33;;
17345;SDS011;8790;53.590;10.002;2024-02-26T14:14:20;16.30;;;9.87;;
17345;SDS011;8790;53.590;10.002;2024-02-26T14:16:51;16.23;;;9.90;;
17345;SDS011;8790;53.590;10.002;2024-02-26T14:19:24;16.07;;;10.00;;
17345;SDS011;8790;53.590;10.002;2024-02-26T14:21:55;12.73;;;8.90;;
17345;SDS011;8790;53.590;10.002;2024-02-26T14:24:27;15.10;;;9.23;;
17345;SDS011;8790;53.590;10.002;2024-02-26T14:26:58;13.63;;;9.70;;
17345;SDS011;8790;53.590;10.002;2024-02-26T14:29:30;15.40;;;10.17;;
17345;SDS011;8790;53.590;10.002;2024-02-26T14:32:01;16.30;;;9.43;;
17345;SDS011;8790;53.590;10.002;2024-02-26T14:34:34;15.07;;;9.40;;
17345;SDS011;8790;53.590;10.002;2024-02-26T14:37:05;14.10;;;10.00;;
17345;SDS011;8790;53.590;10.002;2024-02-26T14:39:37;13.00;;;9.30;;
17345;SDS011;8790;53.590;10.002;2024-02-26T14:42:08;14.77;;;9.27;;
17345;SDS011;8790;53.590;10.002;2024-02-26T14:44:40;13.17;;;9.10;;
17345;SDS011;8790;53.590;10.002;2024-02-26T14:47:11;14.23;;;10.03;;
17345;SDS011;8790;53.590;10.002;2024-02-26T14:49:44;14.17;;;9.60;;
17345;SDS011;8790;53.590;10.002;2024-02-26T14:52:18;13.47;;;9.60;;
17345;SDS011;8790;53.590;10.002;2024-02-26T14:54:49;14.10;;;9.43;;
17345;SDS011;8790;53.590;10.002;2024-02-26T14:57:21;13.50;;;9.70;;
17345;SDS011;8790;53.590;10.002;2024-02-26T14:59:52;13.10;;;9.07;;